Time;durP1;ratioP1;P1;durP2;ratioP2;P2;SDS_P1;SDS_P2;PMS_P1;PMS_P2;Temp;Humidity;BMP_temperature;BMP_pressure;BME280_temperature;BME280_humidity;BME280_pressure;Samples;Min_cycle;Max_cycle;Signal;HPM_P1;HPM_P2
2023/12/23 00:01:45;;;;;;;0.80;0.40;;;;;;;;;;5077598;28;20376;-84
2023/12/23 00:04:12;;;;;;;0.40;0.30;;;;;;;;;;5077391;28;20380;-84
2023/12/23 00:06:39;;;;;;;0.88;0.38;;;;;;;;;;5076864;28;20423;-83
2023/12/23 00:09:05;;;;;;;0.95;0.40;;;;;;;;;;5077312;28;20380;-83
2023/12/23 00:11:31;;;;;;;0.80;0.30;;;;;;;;;;5077335;28;20541;-84
2023/12/23 00:13:57;;;;;;;0.50;0.30;;;;;;;;;;5059672;28;20967;-84
2023/12/23 00:16:24;;;;;;;1.38;0.47;;;;;;;;;;5076799;28;20382;-84
2023/12/23 00:18:50;;;;;;;1.10;0.40;;;;;;;;;;5076290;28;20380;-83
2023/12/23 00:21:16;;;;;;;1.38;0.50;;;;;;;;;;5076753;28;20404;-84
2023/12/23 00:23:42;;;;;;;1.02;0.40;;;;;;;;;;5076792;28;20850;-84
2023/12/23 00:26:08;;;;;;;1.40;0.45;;;;;;;;;;5058976;28;20399;-83
2023/12/23 00:28:34;;;;;;;1.50;0.50;;;;;;;;;;5077117;28;20417;-84
2023/12/23 00:31:00;;;;;;;0.57;0.30;;;;;;;;;;5076837;28;20861;-84
2023/12/23 00:33:26;;;;;;;0.80;0.38;;;;;;;;;;5057751;28;20463;-84
2023/12/23 00:35:51;;;;;;;1.33;0.40;;;;;;;;;;5076753;28;20829;-83
2023/12/23 00:38:18;;;;;;;1.30;0.40;;;;;;;;;;5076313;28;20433;-84
2023/12/23 00:40:43;;;;;;;1.15;0.30;;;;;;;;;;5076629;28;20460;-84
2023/12/23 00:43:09;;;;;;;0.88;0.28;;;;;;;;;;5076729;28;20415;-84
2023/12/23 00:45:36;;;;;;;1.00;0.40;;;;;;;;;;5076880;28;20383;-84
2023/12/23 00:48:02;;;;;;;1.00;0.60;;;;;;;;;;5076922;28;20491;-84
2023/12/23 00:50:28;;;;;;;0.75;0.30;;;;;;;;;;5077197;28;20391;-84
2023/12/23 00:52:54;;;;;;;2.00;0.50;;;;;;;;;;5076285;28;20410;-83
2023/12/23 00:55:20;;;;;;;1.00;0.50;;;;;;;;;;5075757;28;20380;-84
2023/12/23 00:57:46;;;;;;;1.27;0.40;;;;;;;;;;5076612;28;20477;-84
2023/12/23 01:00:12;;;;;;;0.68;0.38;;;;;;;;;;5076431;28;20451;-83
2023/12/23 01:02:38;;;;;;;1.20;0.52;;;;;;;;;;5076682;28;20470;-83
2023/12/23 01:05:04;;;;;;;1.83;0.50;;;;;;;;;;5077043;28;20376;-83
2023/12/23 01:07:30;;;;;;;1.25;0.60;;;;;;;;;;5076265;28;20375;-83
2023/12/23 01:09:57;;;;;;;2.00;0.40;;;;;;;;;;5076921;28;20540;-84
2023/12/23 01:12:23;;;;;;;1.30;0.50;;;;;;;;;;5075717;28;20418;-84
2023/12/23 01:14:49;;;;;;;0.90;0.40;;;;;;;;;;5076477;28;20383;-83
2023/12/23 01:17:15;;;;;;;1.30;0.40;;;;;;;;;;5058947;28;20416;-84
2023/12/23 01:19:41;;;;;;;1.20;0.50;;;;;;;;;;5076974;28;20375;-83
2023/12/23 01:22:07;;;;;;;1.10;0.50;;;;;;;;;;5075998;28;20379;-84
2023/12/23 01:24:33;;;;;;;0.90;0.30;;;;;;;;;;5076134;28;20687;-84
2023/12/23 01:26:59;;;;;;;1.17;0.38;;;;;;;;;;5076329;28;20387;-84
2023/12/23 01:29:25;;;;;;;2.08;0.50;;;;;;;;;;5075917;28;20388;-83
2023/12/23 01:31:51;;;;;;;1.65;0.40;;;;;;;;;;5075654;28;20433;-84
2023/12/23 01:34:17;;;;;;;0.90;0.43;;;;;;;;;;5076246;28;20372;-84
2023/12/23 01:36:43;;;;;;;1.80;0.33;;;;;;;;;;5076016;28;20439;-84
2023/12/23 01:39:09;;;;;;;1.88;0.52;;;;;;;;;;5076521;28;20380;-84
2023/12/23 01:41:35;;;;;;;0.40;0.40;;;;;;;;;;5068765;28;20427;-84
2023/12/23 01:44:01;;;;;;;1.05;0.50;;;;;;;;;;5056570;28;20855;-84
2023/12/23 01:46:27;;;;;;;1.55;0.50;;;;;;;;;;5055951;28;20396;-83
2023/12/23 01:48:53;;;;;;;1.35;0.40;;;;;;;;;;5055656;28;20439;-84
2023/12/23 01:51:19;;;;;;;1.27;0.50;;;;;;;;;;5055736;28;20424;-84
2023/12/23 01:53:45;;;;;;;1.10;0.40;;;;;;;;;;5055336;28;20382;-83
2023/12/23 01:56:12;;;;;;;0.95;0.50;;;;;;;;;;5055496;28;20374;-84
2023/12/23 01:58:38;;;;;;;1.17;0.50;;;;;;;;;;5075805;28;20384;-83
2023/12/23 02:01:04;;;;;;;0.90;0.40;;;;;;;;;;5076348;28;20391;-84
2023/12/23 02:03:31;;;;;;;2.75;0.40;;;;;;;;;;5057617;28;20888;-84
2023/12/23 02:05:57;;;;;;;1.42;0.40;;;;;;;;;;5075728;28;20902;-84
2023/12/23 02:08:23;;;;;;;1.00;0.47;;;;;;;;;;5075999;28;20387;-84
2023/12/23 02:10:54;;;;;;;1.75;0.50;;;;;;;;;;5075500;28;20456;-84
2023/12/23 02:13:27;;;;;;;1.38;0.50;;;;;;;;;;5075597;28;20375;-84
2023/12/23 02:15:53;;;;;;;2.10;0.50;;;;;;;;;;5075182;28;20549;-84
2023/12/23 02:18:20;;;;;;;0.75;0.40;;;;;;;;;;5076518;28;20764;-84
2023/12/23 02:20:49;;;;;;;0.73;0.50;;;;;;;;;;5076161;28;20382;-84
2023/12/23 02:23:15;;;;;;;0.82;0.40;;;;;;;;;;5075161;28;20386;-84
2023/12/23 02:25:41;;;;;;;1.08;0.40;;;;;;;;;;5075539;28;20406;-83
2023/12/23 02:28:08;;;;;;;1.45;0.50;;;;;;;;;;5076918;28;20376;-84
2023/12/23 02:30:36;;;;;;;0.87;0.50;;;;;;;;;;5076604;28;20555;-84
2023/12/23 02:33:02;;;;;;;1.52;0.47;;;;;;;;;;5075209;28;20386;-83
2023/12/23 02:35:28;;;;;;;0.65;0.35;;;;;;;;;;5076112;28;20976;-84
2023/12/23 02:37:55;;;;;;;1.73;0.50;;;;;;;;;;5075659;28;20857;-83
2023/12/23 02:40:21;;;;;;;1.42;0.68;;;;;;;;;;5075518;28;20376;-84
2023/12/23 02:42:47;;;;;;;1.90;0.50;;;;;;;;;;5075645;28;20371;-84
2023/12/23 02:45:13;;;;;;;3.10;0.90;;;;;;;;;;5075828;28;20454;-84
2023/12/23 02:47:39;;;;;;;2.08;0.50;;;;;;;;;;5075657;28;20384;-84
2023/12/23 02:50:05;;;;;;;2.33;0.65;;;;;;;;;;5076016;28;20372;-84
2023/12/23 02:52:31;;;;;;;2.15;0.50;;;;;;;;;;5075496;28;20411;-83
2023/12/23 02:54:57;;;;;;;1.50;0.55;;;;;;;;;;5075643;28;20380;-84
2023/12/23 02:57:23;;;;;;;1.17;0.50;;;;;;;;;;5079141;28;20372;-84
2023/12/23 02:59:49;;;;;;;1.65;0.60;;;;;;;;;;5061593;28;20888;-83
2023/12/23 03:02:15;;;;;;;1.05;0.45;;;;;;;;;;5079529;28;20383;-83
2023/12/23 03:04:41;;;;;;;1.67;0.68;;;;;;;;;;5079296;28;20706;-83
2023/12/23 03:07:08;;;;;;;0.95;0.43;;;;;;;;;;5078997;28;20385;-84
2023/12/23 03:09:35;;;;;;;1.58;0.43;;;;;;;;;;5079558;28;20379;-84
2023/12/23 03:12:01;;;;;;;1.43;0.50;;;;;;;;;;5079040;28;20427;-84
2023/12/23 03:14:27;;;;;;;1.90;0.77;;;;;;;;;;5078671;28;20702;-84
2023/12/23 03:16:53;;;;;;;1.33;0.57;;;;;;;;;;5078537;28;20455;-83
2023/12/23 03:19:19;;;;;;;1.02;0.40;;;;;;;;;;5078816;28;20376;-83
2023/12/23 03:21:46;;;;;;;1.00;0.50;;;;;;;;;;5079046;28;20376;-83
2023/12/23 03:24:12;;;;;;;0.68;0.40;;;;;;;;;;5078673;28;20958;-84
2023/12/23 03:26:38;;;;;;;1.70;0.60;;;;;;;;;;5071560;28;21177;-84
2023/12/23 03:29:07;;;;;;;2.90;0.60;;;;;;;;;;5063046;28;20386;-83
2023/12/23 03:31:33;;;;;;;0.90;0.38;;;;;;;;;;5058532;28;20968;-84
2023/12/23 03:34:00;;;;;;;1.48;0.50;;;;;;;;;;5058654;28;20381;-83
2023/12/23 03:36:27;;;;;;;1.05;0.50;;;;;;;;;;5043030;28;20390;-84
2023/12/23 03:38:53;;;;;;;1.60;0.55;;;;;;;;;;5058698;28;20457;-84
2023/12/23 03:41:19;;;;;;;3.30;0.50;;;;;;;;;;5058098;28;20385;-84
2023/12/23 03:43:45;;;;;;;0.93;0.35;;;;;;;;;;5058819;28;20385;-83
2023/12/23 03:46:11;;;;;;;1.30;0.50;;;;;;;;;;5058929;28;20401;-84
2023/12/23 03:48:37;;;;;;;1.65;0.57;;;;;;;;;;5058591;28;20505;-84
2023/12/23 03:51:03;;;;;;;1.08;0.60;;;;;;;;;;5060637;28;20836;-83
2023/12/23 03:53:29;;;;;;;0.50;0.50;;;;;;;;;;5078391;28;20407;-84
2023/12/23 03:55:55;;;;;;;0.80;0.40;;;;;;;;;;5077929;28;20387;-83
2023/12/23 03:58:21;;;;;;;1.50;0.60;;;;;;;;;;5077849;28;20375;-84
2023/12/23 04:00:47;;;;;;;1.00;0.43;;;;;;;;;;5077877;28;20376;-84
2023/12/23 04:03:13;;;;;;;0.75;0.32;;;;;;;;;;5078233;28;20437;-83
2023/12/23 04:05:39;;;;;;;1.20;0.45;;;;;;;;;;5078220;28;20380;-84
2023/12/23 04:08:06;;;;;;;1.38;0.40;;;;;;;;;;5077153;28;20437;-84
2023/12/23 04:10:31;;;;;;;1.15;0.40;;;;;;;;;;5077980;28;20376;-84
2023/12/23 04:12:58;;;;;;;0.45;0.20;;;;;;;;;;5078254;28;20380;-84
2023/12/23 04:15:24;;;;;;;1.67;0.40;;;;;;;;;;5078118;28;20392;-84
2023/12/23 04:17:50;;;;;;;1.40;0.40;;;;;;;;;;5078023;28;20376;-84
2023/12/23 04:20:16;;;;;;;1.00;0.40;;;;;;;;;;5077795;28;20439;-84
2023/12/23 04:22:47;;;;;;;0.80;0.40;;;;;;;;;;5077411;28;20468;-84
2023/12/23 04:25:13;;;;;;;1.10;0.40;;;;;;;;;;5077359;28;20383;-83
2023/12/23 04:27:39;;;;;;;1.05;0.50;;;;;;;;;;5077607;28;20442;-83
2023/12/23 04:30:06;;;;;;;0.60;0.40;;;;;;;;;;5077339;28;20383;-84
2023/12/23 04:32:32;;;;;;;0.90;0.40;;;;;;;;;;5048575;28;20413;-84
2023/12/23 04:34:59;;;;;;;0.80;0.30;;;;;;;;;;5077146;28;20411;-83
2023/12/23 04:37:25;;;;;;;0.43;0.22;;;;;;;;;;5074793;28;20391;-84
2023/12/23 04:39:51;;;;;;;0.60;0.30;;;;;;;;;;5077141;28;20368;-84
2023/12/23 04:42:17;;;;;;;0.80;0.45;;;;;;;;;;5078045;28;20449;-83
2023/12/23 04:44:43;;;;;;;0.88;0.30;;;;;;;;;;5076738;28;20890;-83
2023/12/23 04:47:09;;;;;;;0.70;0.20;;;;;;;;;;5077218;28;20482;-83
2023/12/23 04:49:35;;;;;;;0.90;0.30;;;;;;;;;;5055897;28;20843;-84
2023/12/23 04:52:01;;;;;;;0.50;0.30;;;;;;;;;;5057863;28;20882;-84
2023/12/23 04:54:27;;;;;;;0.63;0.20;;;;;;;;;;5057635;28;20472;-84
2023/12/23 04:56:53;;;;;;;0.30;0.20;;;;;;;;;;5057169;28;20887;-84
2023/12/23 04:59:19;;;;;;;0.17;0.10;;;;;;;;;;5058139;28;20945;-83
2023/12/23 05:01:45;;;;;;;1.60;0.30;;;;;;;;;;5056719;28;20473;-84
2023/12/23 05:04:11;;;;;;;0.60;0.20;;;;;;;;;;5057627;28;20786;-83
2023/12/23 05:06:37;;;;;;;0.50;0.20;;;;;;;;;;5056981;28;20417;-84
2023/12/23 05:09:05;;;;;;;0.20;0.20;;;;;;;;;;5058179;28;20447;-83
2023/12/23 05:11:31;;;;;;;0.35;0.20;;;;;;;;;;5056832;28;20453;-83
2023/12/23 05:13:57;;;;;;;0.60;0.30;;;;;;;;;;5057365;28;20381;-84
2023/12/23 05:16:25;;;;;;;0.30;0.10;;;;;;;;;;5055603;28;20381;-84
2023/12/23 05:18:51;;;;;;;1.00;0.40;;;;;;;;;;5056479;28;20708;-84
2023/12/23 05:21:17;;;;;;;0.13;0.13;;;;;;;;;;5055160;28;20377;-84
2023/12/23 05:23:43;;;;;;;1.27;0.20;;;;;;;;;;5057124;28;20378;-84
2023/12/23 05:26:09;;;;;;;0.40;0.28;;;;;;;;;;5056447;28;20408;-83
2023/12/23 05:28:35;;;;;;;0.30;0.30;;;;;;;;;;5053824;28;20773;-84
2023/12/23 05:31:01;;;;;;;0.40;0.22;;;;;;;;;;5057168;28;20497;-83
2023/12/23 05:33:27;;;;;;;0.30;0.20;;;;;;;;;;5057533;28;20385;-83
2023/12/23 05:35:53;;;;;;;0.40;0.30;;;;;;;;;;5057060;28;20388;-84
2023/12/23 05:38:19;;;;;;;0.90;0.20;;;;;;;;;;5057044;28;20544;-83
2023/12/23 05:40:45;;;;;;;0.30;0.22;;;;;;;;;;5057072;28;20478;-83
2023/12/23 05:43:11;;;;;;;0.80;0.30;;;;;;;;;;5056951;28;20873;-84
2023/12/23 05:45:37;;;;;;;0.30;0.20;;;;;;;;;;5054832;28;20465;-84
2023/12/23 05:48:04;;;;;;;0.20;0.20;;;;;;;;;;5060724;28;20849;-83
2023/12/23 05:50:30;;;;;;;0.40;0.30;;;;;;;;;;5076436;28;20387;-84
2023/12/23 05:52:56;;;;;;;0.40;0.25;;;;;;;;;;5076173;28;20433;-84
2023/12/23 05:55:22;;;;;;;0.20;0.10;;;;;;;;;;5077365;28;20380;-84
2023/12/23 05:57:48;;;;;;;0.50;0.20;;;;;;;;;;5058458;28;20892;-84
2023/12/23 06:00:14;;;;;;;0.30;0.10;;;;;;;;;;5075940;28;20447;-84
2023/12/23 06:02:40;;;;;;;0.10;0.10;;;;;;;;;;5076055;28;20474;-84
2023/12/23 06:05:07;;;;;;;0.30;0.15;;;;;;;;;;5076151;28;20380;-84
2023/12/23 06:07:34;;;;;;;0.40;0.38;;;;;;;;;;5077154;28;20489;-84
2023/12/23 06:10:00;;;;;;;0.80;0.30;;;;;;;;;;5076169;28;20422;-83
2023/12/23 06:12:26;;;;;;;0.30;0.20;;;;;;;;;;5076248;28;20780;-83
2023/12/23 06:14:54;;;;;;;0.30;0.30;;;;;;;;;;5075680;28;20422;-83
2023/12/23 06:17:20;;;;;;;0.20;0.20;;;;;;;;;;5075852;28;20410;-84
2023/12/23 06:19:46;;;;;;;0.20;0.20;;;;;;;;;;5075938;28;20375;-83
2023/12/23 06:22:12;;;;;;;0.20;0.20;;;;;;;;;;5075974;28;20471;-83
2023/12/23 06:24:38;;;;;;;0.32;0.25;;;;;;;;;;5075384;28;20420;-83
2023/12/23 06:27:05;;;;;;;0.60;0.30;;;;;;;;;;5075331;28;20388;-84
2023/12/23 06:29:31;;;;;;;0.35;0.20;;;;;;;;;;5058304;28;20518;-84
2023/12/23 06:31:59;;;;;;;0.20;0.10;;;;;;;;;;5061075;28;20432;-84
2023/12/23 06:34:25;;;;;;;0.10;0.10;;;;;;;;;;5079488;28;20914;-84
2023/12/23 06:36:51;;;;;;;0.32;0.30;;;;;;;;;;5078639;28;20375;-83
2023/12/23 06:39:17;;;;;;;1.30;0.30;;;;;;;;;;5079238;28;20379;-84
2023/12/23 06:41:45;;;;;;;0.60;0.20;;;;;;;;;;5061427;28;20765;-83
2023/12/23 06:44:11;;;;;;;0.25;0.20;;;;;;;;;;5080447;28;20425;-84
2023/12/23 06:46:37;;;;;;;0.20;0.20;;;;;;;;;;5080356;28;20403;-84
2023/12/23 06:49:03;;;;;;;0.70;0.20;;;;;;;;;;5079696;28;20411;-84
2023/12/23 06:51:29;;;;;;;0.30;0.20;;;;;;;;;;5079657;28;20406;-83
2023/12/23 06:53:56;;;;;;;0.53;0.20;;;;;;;;;;5080029;28;20403;-84
2023/12/23 06:56:22;;;;;;;0.43;0.20;;;;;;;;;;5079406;28;20376;-83
2023/12/23 06:58:48;;;;;;;0.80;0.20;;;;;;;;;;5079273;28;20788;-84
2023/12/23 07:01:14;;;;;;;0.25;0.13;;;;;;;;;;5079861;28;20384;-84
2023/12/23 07:03:42;;;;;;;0.20;0.10;;;;;;;;;;5079707;28;20376;-83
2023/12/23 07:06:11;;;;;;;0.10;0.10;;;;;;;;;;5079380;28;20953;-84
2023/12/23 07:08:37;;;;;;;0.70;0.10;;;;;;;;;;5079528;28;20390;-84
2023/12/23 07:11:03;;;;;;;0.35;0.10;;;;;;;;;;5079622;28;20415;-84
2023/12/23 07:13:29;;;;;;;0.27;0.10;;;;;;;;;;5080717;28;20386;-84
2023/12/23 07:15:55;;;;;;;0.63;0.20;;;;;;;;;;5079738;28;20921;-84
2023/12/23 07:18:21;;;;;;;0.15;0.10;;;;;;;;;;5079431;28;20384;-83
2023/12/23 07:20:47;;;;;;;0.47;0.10;;;;;;;;;;5076834;28;20390;-84
2023/12/23 07:23:14;;;;;;;0.75;0.35;;;;;;;;;;5059554;28;20385;-84
2023/12/23 07:25:40;;;;;;;0.28;0.10;;;;;;;;;;5060405;28;20389;-83
2023/12/23 07:28:06;;;;;;;0.10;0.10;;;;;;;;;;5059686;28;20377;-84
2023/12/23 07:30:32;;;;;;;0.93;0.20;;;;;;;;;;5059210;28;20400;-84
2023/12/23 07:32:58;;;;;;;0.20;0.10;;;;;;;;;;5059291;28;20373;-84
2023/12/23 07:35:25;;;;;;;0.20;0.10;;;;;;;;;;5059751;28;20382;-83
2023/12/23 07:37:51;;;;;;;0.10;0.10;;;;;;;;;;5059027;28;20427;-84
2023/12/23 07:40:17;;;;;;;0.25;0.20;;;;;;;;;;5059125;28;20390;-84
2023/12/23 07:42:43;;;;;;;0.20;0.10;;;;;;;;;;5060499;28;20383;-84
2023/12/23 07:45:09;;;;;;;0.10;0.10;;;;;;;;;;5079097;28;20434;-83
2023/12/23 07:47:35;;;;;;;0.27;0.10;;;;;;;;;;5078650;28;20383;-84
2023/12/23 07:50:01;;;;;;;0.40;0.17;;;;;;;;;;5078890;28;20741;-84
2023/12/23 07:52:27;;;;;;;0.20;0.20;;;;;;;;;;5078099;28;20410;-84
2023/12/23 07:54:53;;;;;;;0.22;0.20;;;;;;;;;;5076828;28;20376;-84
2023/12/23 07:57:19;;;;;;;0.32;0.10;;;;;;;;;;5077778;28;20909;-84
2023/12/23 07:59:46;;;;;;;0.20;0.20;;;;;;;;;;5077965;28;20376;-84
2023/12/23 08:02:12;;;;;;;0.13;0.13;;;;;;;;;;5078248;28;20380;-83
2023/12/23 08:04:38;;;;;;;0.60;0.40;;;;;;;;;;5077763;28;20455;-84
2023/12/23 08:07:04;;;;;;;0.40;0.20;;;;;;;;;;5078303;28;20383;-84
2023/12/23 08:09:30;;;;;;;0.20;0.20;;;;;;;;;;5079404;28;20380;-84
2023/12/23 08:11:56;;;;;;;0.50;0.20;;;;;;;;;;5078127;28;20865;-84
2023/12/23 08:14:22;;;;;;;0.40;0.30;;;;;;;;;;5078217;28;20398;-84
2023/12/23 08:16:48;;;;;;;5.20;0.35;;;;;;;;;;5078323;28;20521;-83
2023/12/23 08:19:14;;;;;;;0.82;0.20;;;;;;;;;;5077979;28;20413;-83
2023/12/23 08:21:40;;;;;;;0.30;0.30;;;;;;;;;;5078705;28;20394;-84
2023/12/23 08:24:06;;;;;;;0.70;0.30;;;;;;;;;;5077103;28;20756;-83
2023/12/23 08:26:33;;;;;;;0.20;0.20;;;;;;;;;;5078224;28;20391;-84
2023/12/23 08:28:59;;;;;;;0.70;0.30;;;;;;;;;;5078543;28;20445;-84
2023/12/23 08:31:26;;;;;;;0.20;0.10;;;;;;;;;;5078018;28;20796;-84
2023/12/23 08:33:52;;;;;;;0.30;0.30;;;;;;;;;;5078716;28;20877;-84
2023/12/23 08:36:18;;;;;;;0.65;0.55;;;;;;;;;;5078353;28;20433;-83
2023/12/23 08:38:44;;;;;;;0.40;0.30;;;;;;;;;;5078012;28;20387;-84
2023/12/23 08:41:10;;;;;;;0.73;0.55;;;;;;;;;;5078099;28;20403;-83
2023/12/23 08:43:35;;;;;;;0.95;0.45;;;;;;;;;;5077776;28;20404;-84
2023/12/23 08:46:01;;;;;;;0.60;0.50;;;;;;;;;;5078122;28;20387;-84
2023/12/23 08:48:28;;;;;;;0.60;0.30;;;;;;;;;;5077968;28;20437;-84
2023/12/23 08:50:54;;;;;;;0.80;0.60;;;;;;;;;;5078288;28;20411;-84
2023/12/23 08:53:20;;;;;;;0.38;0.20;;;;;;;;;;5058972;28;20776;-84
2023/12/23 08:55:46;;;;;;;0.30;0.20;;;;;;;;;;5076126;28;20375;-83
2023/12/23 08:58:13;;;;;;;0.82;0.10;;;;;;;;;;5077351;28;20714;-84
2023/12/23 09:00:39;;;;;;;0.70;0.17;;;;;;;;;;5076697;28;20438;-84
2023/12/23 09:03:05;;;;;;;0.30;0.20;;;;;;;;;;5059748;28;20388;-84
2023/12/23 09:05:31;;;;;;;1.65;0.22;;;;;;;;;;5077369;28;20413;-83
2023/12/23 09:07:57;;;;;;;0.40;0.23;;;;;;;;;;5077591;28;20384;-84
2023/12/23 09:10:23;;;;;;;0.20;0.20;;;;;;;;;;5060127;28;20422;-84
2023/12/23 09:12:49;;;;;;;0.20;0.20;;;;;;;;;;5077529;28;20485;-84
2023/12/23 09:15:15;;;;;;;2.13;0.30;;;;;;;;;;5074761;28;20438;-84
2023/12/23 09:17:41;;;;;;;0.40;0.30;;;;;;;;;;5060461;28;20729;-85
2023/12/23 09:20:10;;;;;;;0.30;0.20;;;;;;;;;;5060184;28;20384;-84
2023/12/23 09:22:36;;;;;;;0.40;0.20;;;;;;;;;;5078141;28;20411;-85
2023/12/23 09:25:02;;;;;;;0.37;0.20;;;;;;;;;;5077643;28;20464;-85
2023/12/23 09:27:28;;;;;;;0.70;0.22;;;;;;;;;;5078442;28;20462;-84
2023/12/23 09:29:56;;;;;;;0.47;0.20;;;;;;;;;;5078993;28;20463;-84
2023/12/23 09:32:22;;;;;;;0.30;0.10;;;;;;;;;;5079036;28;20490;-84
2023/12/23 09:34:49;;;;;;;0.40;0.10;;;;;;;;;;5077943;28;21127;-84
2023/12/23 09:37:15;;;;;;;0.20;0.20;;;;;;;;;;5077152;28;20404;-84
2023/12/23 09:39:41;;;;;;;0.25;0.20;;;;;;;;;;5077347;28;20372;-84
2023/12/23 09:42:07;;;;;;;0.40;0.20;;;;;;;;;;5077753;28;20386;-84
2023/12/23 09:44:33;;;;;;;0.30;0.20;;;;;;;;;;5076845;28;20395;-84
2023/12/23 09:46:59;;;;;;;0.47;0.20;;;;;;;;;;5060096;28;20403;-84
2023/12/23 09:49:25;;;;;;;0.17;0.13;;;;;;;;;;5060212;28;20907;-84
2023/12/23 09:51:51;;;;;;;0.15;0.10;;;;;;;;;;5077210;28;20419;-84
2023/12/23 09:54:21;;;;;;;0.30;0.20;;;;;;;;;;5078231;28;20379;-84
2023/12/23 09:56:50;;;;;;;0.77;0.43;;;;;;;;;;5078240;28;20464;-85
2023/12/23 09:59:16;;;;;;;1.27;0.20;;;;;;;;;;5077792;28;20433;-84
2023/12/23 10:01:42;;;;;;;0.35;0.20;;;;;;;;;;5076995;28;20451;-84
2023/12/23 10:04:08;;;;;;;0.35;0.20;;;;;;;;;;5078130;28;20828;-84
2023/12/23 10:06:34;;;;;;;0.30;0.20;;;;;;;;;;5082063;28;20378;-84
2023/12/23 10:09:00;;;;;;;0.17;0.17;;;;;;;;;;5083303;28;20411;-83
2023/12/23 10:11:26;;;;;;;0.63;0.20;;;;;;;;;;5083604;28;20403;-83
2023/12/23 10:13:53;;;;;;;0.40;0.20;;;;;;;;;;5082068;28;20440;-83
2023/12/23 10:16:19;;;;;;;0.68;0.20;;;;;;;;;;5081893;28;20380;-83
2023/12/23 10:18:48;;;;;;;0.50;0.40;;;;;;;;;;5081355;28;20379;-83
2023/12/23 10:21:14;;;;;;;0.80;0.10;;;;;;;;;;5081601;28;20382;-84
2023/12/23 10:23:40;;;;;;;0.30;0.10;;;;;;;;;;5081233;28;20718;-84
2023/12/23 10:26:06;;;;;;;1.02;0.20;;;;;;;;;;5063919;28;20414;-84
2023/12/23 10:28:36;;;;;;;0.28;0.20;;;;;;;;;;5063207;28;20765;-84
2023/12/23 10:31:02;;;;;;;0.82;0.25;;;;;;;;;;5064346;28;20403;-84
2023/12/23 10:33:31;;;;;;;0.30;0.20;;;;;;;;;;5063599;28;20436;-84
2023/12/23 10:35:58;;;;;;;0.45;0.20;;;;;;;;;;5079989;28;20742;-84
2023/12/23 10:38:26;;;;;;;0.20;0.20;;;;;;;;;;5082180;28;20387;-84
2023/12/23 10:40:59;;;;;;;0.43;0.20;;;;;;;;;;5081422;28;20387;-84
2023/12/23 10:43:25;;;;;;;0.20;0.10;;;;;;;;;;5080772;28;20395;-84
2023/12/23 10:45:52;;;;;;;0.10;0.10;;;;;;;;;;5079472;28;20433;-83
2023/12/23 10:48:18;;;;;;;0.20;0.10;;;;;;;;;;5080721;28;20464;-84
2023/12/23 10:50:47;;;;;;;1.90;0.17;;;;;;;;;;5063694;28;20753;-84
2023/12/23 10:53:14;;;;;;;0.10;0.10;;;;;;;;;;5081189;28;20386;-83
2023/12/23 10:55:41;;;;;;;0.17;0.10;;;;;;;;;;5081689;28;20375;-84
2023/12/23 10:58:11;;;;;;;0.20;0.10;;;;;;;;;;5080857;28;20753;-84
2023/12/23 11:00:37;;;;;;;0.20;0.10;;;;;;;;;;5081285;28;20482;-87
2023/12/23 11:03:03;;;;;;;0.68;0.10;;;;;;;;;;5081291;28;20385;-84
2023/12/23 11:05:31;;;;;;;0.35;0.10;;;;;;;;;;5081024;28;20384;-84
2023/12/23 11:07:58;;;;;;;0.60;0.10;;;;;;;;;;5082650;28;20707;-84
2023/12/23 11:10:25;;;;;;;0.30;0.20;;;;;;;;;;5081445;28;20391;-84
2023/12/23 11:12:51;;;;;;;0.10;0.10;;;;;;;;;;5082346;28;20403;-84
2023/12/23 11:15:17;;;;;;;0.10;0.10;;;;;;;;;;5062614;28;20421;-84
2023/12/23 11:17:46;;;;;;;0.20;0.10;;;;;;;;;;5080926;28;20380;-84
2023/12/23 11:20:31;;;;;;;0.30;0.20;;;;;;;;;;5081275;28;20733;-84
2023/12/23 11:22:57;;;;;;;0.57;0.40;;;;;;;;;;5077307;28;20384;-84
2023/12/23 11:25:40;;;;;;;0.40;0.40;;;;;;;;;;5062144;28;20478;-84
2023/12/23 11:28:10;;;;;;;0.52;0.30;;;;;;;;;;5059754;28;20381;-84
2023/12/23 11:30:59;;;;;;;0.35;0.30;;;;;;;;;;5058829;28;20381;-83
2023/12/23 11:33:30;;;;;;;0.30;0.30;;;;;;;;;;5045165;28;20405;-83
2023/12/23 11:35:58;;;;;;;0.22;0.22;;;;;;;;;;5059165;28;20420;-84
2023/12/23 11:38:28;;;;;;;0.20;0.20;;;;;;;;;;5059382;28;20373;-83
2023/12/23 11:40:54;;;;;;;0.32;0.32;;;;;;;;;;5059583;28;20411;-84
2023/12/23 11:43:21;;;;;;;0.50;0.40;;;;;;;;;;5059302;28;20396;-84
2023/12/23 11:45:48;;;;;;;0.47;0.30;;;;;;;;;;5041758;28;20381;-84
2023/12/23 11:48:14;;;;;;;0.40;0.40;;;;;;;;;;5071095;28;20780;-84
2023/12/23 11:50:43;;;;;;;0.22;0.20;;;;;;;;;;5081136;28;20470;-83
2023/12/23 11:53:10;;;;;;;0.10;0.10;;;;;;;;;;5080445;28;20388;-84
2023/12/23 11:55:37;;;;;;;0.17;0.10;;;;;;;;;;5080321;28;20860;-83
2023/12/23 11:58:04;;;;;;;0.40;0.40;;;;;;;;;;5079262;28;20383;-83
2023/12/23 12:00:31;;;;;;;0.98;0.30;;;;;;;;;;5079634;28;20434;-83
2023/12/23 12:02:57;;;;;;;0.20;0.20;;;;;;;;;;5079284;28;20454;-84
2023/12/23 12:05:25;;;;;;;0.40;0.30;;;;;;;;;;5078928;28;20387;-83
2023/12/23 12:07:51;;;;;;;0.10;0.10;;;;;;;;;;5079658;28;20391;-84
2023/12/23 12:10:17;;;;;;;0.20;0.20;;;;;;;;;;5079847;28;20372;-84
2023/12/23 12:12:43;;;;;;;0.65;0.20;;;;;;;;;;5078549;28;20431;-84
2023/12/23 12:15:09;;;;;;;0.70;0.17;;;;;;;;;;5061271;28;20442;-84
2023/12/23 12:17:36;;;;;;;0.30;0.30;;;;;;;;;;5078337;28;20383;-84
2023/12/23 12:20:02;;;;;;;0.33;0.10;;;;;;;;;;5079502;28;20372;-84
2023/12/23 12:22:28;;;;;;;0.35;0.20;;;;;;;;;;5079728;28;20380;-84
2023/12/23 12:24:54;;;;;;;0.20;0.20;;;;;;;;;;5081002;28;20414;-84
2023/12/23 12:27:20;;;;;;;0.15;0.15;;;;;;;;;;5079799;28;20383;-84
2023/12/23 12:29:46;;;;;;;0.22;0.20;;;;;;;;;;5079561;28;20375;-84
2023/12/23 12:32:13;;;;;;;0.30;0.30;;;;;;;;;;5079492;28;20904;-84
2023/12/23 12:34:39;;;;;;;0.10;0.10;;;;;;;;;;5079735;28;20794;-84
2023/12/23 12:37:05;;;;;;;0.35;0.32;;;;;;;;;;5060598;28;20436;-84
2023/12/23 12:39:31;;;;;;;0.55;0.52;;;;;;;;;;5078286;28;20745;-84
2023/12/23 12:41:58;;;;;;;0.40;0.40;;;;;;;;;;5078922;28;20751;-84
2023/12/23 12:44:24;;;;;;;0.40;0.30;;;;;;;;;;5060868;28;20889;-84
2023/12/23 12:46:54;;;;;;;0.30;0.22;;;;;;;;;;5078690;28;20425;-84
2023/12/23 12:49:28;;;;;;;0.13;0.13;;;;;;;;;;5116067;27;20342;-84
2023/12/23 12:51:54;;;;;;;1.08;0.30;;;;;;;;;;5117085;28;20424;-83
2023/12/23 12:54:23;;;;;;;0.50;0.30;;;;;;;;;;5115504;28;20379;-84
2023/12/23 12:56:49;;;;;;;0.30;0.20;;;;;;;;;;5115264;28;20370;-84
2023/12/23 12:59:16;;;;;;;0.40;0.15;;;;;;;;;;5115928;28;20839;-84
2023/12/23 13:01:42;;;;;;;0.10;0.10;;;;;;;;;;5115101;28;20369;-82
2023/12/23 13:04:08;;;;;;;0.68;0.30;;;;;;;;;;5115168;28;20867;-85
2023/12/23 13:06:34;;;;;;;0.40;0.22;;;;;;;;;;5114533;28;20396;-84
2023/12/23 13:09:04;;;;;;;0.47;0.47;;;;;;;;;;5113541;28;20401;-84
2023/12/23 13:11:30;;;;;;;0.20;0.20;;;;;;;;;;5115032;28;20414;-83
2023/12/23 13:13:56;;;;;;;0.30;0.20;;;;;;;;;;5114606;28;20426;-83
2023/12/23 13:16:22;;;;;;;0.30;0.20;;;;;;;;;;5113797;28;20370;-83
2023/12/23 13:18:48;;;;;;;0.70;0.20;;;;;;;;;;5113466;28;20389;-83
2023/12/23 13:21:15;;;;;;;0.60;0.10;;;;;;;;;;5114702;28;20388;-83
2023/12/23 13:23:41;;;;;;;0.70;0.20;;;;;;;;;;5114193;28;20409;-83
2023/12/23 13:26:07;;;;;;;0.20;0.20;;;;;;;;;;5097476;28;20391;-83
2023/12/23 13:28:33;;;;;;;0.40;0.20;;;;;;;;;;5093761;28;20410;-83
2023/12/23 13:31:04;;;;;;;0.10;0.10;;;;;;;;;;5094472;28;20409;-83
2023/12/23 13:33:31;;;;;;;0.10;0.10;;;;;;;;;;5094028;28;20381;-83
2023/12/23 13:35:57;;;;;;;0.20;0.20;;;;;;;;;;5093049;28;20379;-83
2023/12/23 13:38:26;;;;;;;0.67;0.20;;;;;;;;;;5093090;28;20387;-83
2023/12/23 13:40:54;;;;;;;0.30;0.30;;;;;;;;;;5093039;28;20794;-83
2023/12/23 13:43:20;;;;;;;0.30;0.30;;;;;;;;;;5093309;28;20379;-83
2023/12/23 13:45:46;;;;;;;1.52;0.95;;;;;;;;;;5107306;28;20854;-83
2023/12/23 13:48:12;;;;;;;0.57;0.53;;;;;;;;;;5123323;28;20441;-83
2023/12/23 13:50:38;;;;;;;0.47;0.20;;;;;;;;;;5134514;28;20382;-83
2023/12/23 13:53:04;;;;;;;0.32;0.30;;;;;;;;;;5134221;28;20371;-83
2023/12/23 13:55:30;;;;;;;0.50;0.40;;;;;;;;;;5134757;28;20372;-84
2023/12/23 13:57:56;;;;;;;0.40;0.30;;;;;;;;;;5134167;28;20445;-86
2023/12/23 14:00:22;;;;;;;0.35;0.20;;;;;;;;;;5122666;28;20734;-83
2023/12/23 14:02:48;;;;;;;0.13;0.13;;;;;;;;;;5119703;28;20471;-83
2023/12/23 14:05:14;;;;;;;0.10;0.10;;;;;;;;;;5120704;28;20775;-83
2023/12/23 14:07:40;;;;;;;0.90;0.20;;;;;;;;;;5120296;28;20419;-83
2023/12/23 14:10:07;;;;;;;0.75;0.20;;;;;;;;;;5120229;28;20846;-83
2023/12/23 14:12:33;;;;;;;0.20;0.20;;;;;;;;;;5120027;28;20430;-83
2023/12/23 14:14:59;;;;;;;0.50;0.20;;;;;;;;;;5119374;28;20711;-83
2023/12/23 14:17:25;;;;;;;0.90;0.20;;;;;;;;;;5119498;28;20434;-83
2023/12/23 14:19:51;;;;;;;0.50;0.20;;;;;;;;;;5119437;28;20384;-84
2023/12/23 14:22:17;;;;;;;0.28;0.20;;;;;;;;;;5119658;28;20467;-83
2023/12/23 14:24:43;;;;;;;0.15;0.10;;;;;;;;;;5119805;28;20448;-83
2023/12/23 14:27:09;;;;;;;0.90;0.22;;;;;;;;;;5119458;28;20869;-83
2023/12/23 14:29:34;;;;;;;0.40;0.10;;;;;;;;;;5119464;28;20383;-83
2023/12/23 14:32:00;;;;;;;1.40;0.40;;;;;;;;;;5118912;28;20396;-84
2023/12/23 14:34:26;;;;;;;0.40;0.20;;;;;;;;;;5119008;28;20380;-84
2023/12/23 14:36:58;;;;;;;0.73;0.70;;;;;;;;;;5118451;28;20380;-84
2023/12/23 14:39:30;;;;;;;0.55;0.40;;;;;;;;;;5119560;28;20388;-83